createdAt,value
2023-11-25T00:00:02.253Z,3.32
2023-11-25T00:03:05.350Z,3.27
2023-11-25T00:06:07.796Z,3.26
2023-11-25T00:09:17.981Z,3.26
2023-11-25T00:12:21.724Z,3.22
2023-11-25T00:15:27.040Z,3.17
2023-11-25T00:18:30.369Z,3.19
2023-11-25T00:21:33.478Z,3.15
2023-11-25T00:24:37.433Z,3.13
2023-11-25T00:27:40.328Z,3.12
2023-11-25T00:30:43.094Z,3.09
2023-11-25T00:33:46.262Z,3.05
2023-11-25T00:36:48.519Z,3.03
2023-11-25T00:39:50.857Z,2.98
2023-11-25T00:42:53.688Z,2.97
2023-11-25T00:45:56.196Z,2.95
2023-11-25T00:48:59.924Z,2.94
2023-11-25T00:52:02.215Z,2.97
2023-11-25T00:55:06.576Z,2.97
2023-11-25T00:58:09.107Z,2.95
2023-11-25T01:01:11.698Z,2.92
2023-11-25T01:04:14.117Z,2.91
2023-11-25T01:07:19.484Z,2.87
2023-11-25T01:10:22.131Z,2.83
2023-11-25T01:13:24.487Z,2.77
2023-11-25T01:16:26.824Z,2.74
2023-11-25T01:19:29.775Z,2.70
2023-11-25T01:22:32.369Z,2.72
2023-11-25T01:25:35.009Z,2.69
2023-11-25T01:28:38.729Z,2.64
2023-11-25T01:31:41.970Z,2.49
2023-11-25T01:34:45.104Z,2.45
2023-11-25T01:37:47.697Z,2.40
2023-11-25T01:40:50.403Z,2.36
2023-11-25T01:43:52.603Z,2.34
2023-11-25T01:46:55.330Z,2.33
2023-11-25T01:49:58.778Z,2.31
2023-11-25T01:53:01.413Z,2.16
2023-11-25T01:56:04.018Z,2.29
2023-11-25T01:59:08.270Z,2.24
2023-11-25T02:02:12.529Z,2.25
2023-11-25T02:05:15.211Z,2.22
2023-11-25T02:08:18.570Z,2.25
2023-11-25T02:11:21.184Z,2.26
2023-11-25T02:14:24.625Z,2.31
2023-11-25T02:17:27.091Z,2.34
2023-11-25T02:20:34.327Z,2.35
2023-11-25T02:23:36.960Z,2.37
2023-11-25T02:26:40.262Z,2.36
2023-11-25T02:29:42.873Z,2.37
2023-11-25T02:32:45.409Z,2.37
2023-11-25T02:35:50.662Z,2.37
2023-11-25T02:38:53.193Z,2.35
2023-11-25T02:41:55.798Z,2.37
2023-11-25T02:44:58.241Z,2.37
2023-11-25T02:48:01.287Z,2.35
2023-11-25T02:51:03.990Z,2.32
2023-11-25T02:54:07.299Z,2.29
2023-11-25T02:57:09.578Z,2.29
2023-11-25T03:00:25.305Z,2.30
2023-11-25T03:03:29.018Z,2.28
2023-11-25T03:06:32.352Z,2.29
2023-11-25T03:09:35.172Z,2.30
2023-11-25T03:12:38.235Z,2.28
2023-11-25T03:15:41.172Z,2.23
2023-11-25T03:18:43.443Z,2.21
2023-11-25T03:21:45.712Z,2.20
2023-11-25T03:24:48.157Z,2.15
2023-11-25T03:27:50.705Z,2.13
2023-11-25T03:30:53.266Z,2.09
2023-11-25T03:33:55.673Z,2.05
2023-11-25T03:40:55.049Z,1.98
2023-11-25T03:43:57.570Z,1.96
2023-11-25T03:46:59.911Z,1.92
2023-11-25T03:50:02.604Z,1.89
2023-11-25T03:53:05.355Z,1.92
2023-11-25T03:56:08.368Z,1.86
2023-11-25T03:59:10.637Z,1.82
2023-11-25T04:02:12.917Z,1.81
2023-11-25T04:05:17.769Z,1.76
2023-11-25T04:08:20.282Z,1.75
2023-11-25T04:11:22.891Z,1.73
2023-11-25T04:14:27.170Z,1.70
2023-11-25T04:17:29.375Z,1.67
2023-11-25T04:20:34.864Z,1.61
2023-11-25T04:23:37.684Z,1.51
2023-11-25T04:26:42.316Z,1.47
2023-11-25T04:29:44.943Z,1.41
2023-11-25T04:32:49.051Z,1.37
2023-11-25T04:35:52.834Z,1.29
2023-11-25T04:38:57.336Z,1.31
2023-11-25T04:41:59.768Z,1.23
2023-11-25T04:45:02.214Z,1.24
2023-11-25T04:48:05.169Z,1.28
2023-11-25T04:51:07.894Z,1.30
2023-11-25T04:54:10.575Z,1.22
2023-11-25T04:57:12.806Z,1.26
2023-11-25T05:00:16.401Z,1.27
2023-11-25T05:03:19.163Z,1.28
2023-11-25T05:06:21.700Z,1.32
2023-11-25T05:09:27.360Z,1.38
2023-11-25T05:12:29.960Z,1.36
2023-11-25T05:15:32.122Z,1.40
2023-11-25T05:18:34.380Z,1.41
2023-11-25T05:21:37.199Z,1.37
2023-11-25T05:24:39.845Z,1.30
2023-11-25T05:27:42.038Z,1.32
2023-11-25T05:30:44.641Z,1.32
2023-11-25T05:33:46.801Z,1.25
2023-11-25T05:36:48.949Z,1.16
2023-11-25T05:39:51.758Z,1.13
2023-11-25T05:42:58.821Z,1.00
2023-11-25T05:46:01.295Z,0.94
2023-11-25T05:49:05.119Z,0.87
2023-11-25T05:52:07.663Z,0.80
2023-11-25T05:55:10.532Z,0.71
2023-11-25T05:58:14.678Z,0.65
2023-11-25T06:01:17.684Z,0.70
2023-11-25T06:04:22.033Z,0.74
2023-11-25T06:07:25.481Z,0.74
2023-11-25T06:10:28.011Z,0.71
2023-11-25T06:13:30.789Z,0.72
2023-11-25T06:16:35.295Z,0.69
2023-11-25T06:19:44.149Z,0.67
2023-11-25T06:22:46.651Z,0.57
2023-11-25T06:25:48.956Z,0.53
2023-11-25T06:28:51.265Z,0.52
2023-11-25T06:31:53.806Z,0.52
2023-11-25T06:34:58.335Z,0.48
2023-11-25T06:38:00.749Z,0.41
2023-11-25T06:41:03.322Z,0.40
2023-11-25T06:44:05.842Z,0.37
2023-11-25T06:47:08.250Z,0.39
2023-11-25T06:50:12.976Z,0.39
2023-11-25T06:53:15.184Z,0.35
2023-11-25T06:56:21.049Z,0.33
2023-11-25T06:59:23.517Z,0.40
2023-11-25T07:02:28.490Z,0.45
2023-11-25T07:05:32.012Z,0.57
2023-11-25T07:08:34.615Z,0.58
2023-11-25T07:11:38.617Z,0.61
2023-11-25T07:14:41.493Z,0.72
2023-11-25T07:17:44.085Z,0.83
2023-11-25T07:20:48.076Z,0.83
2023-11-25T07:23:50.598Z,0.81
2023-11-25T07:26:55.970Z,0.89
2023-11-25T07:30:02.472Z,0.91
2023-11-25T07:33:05.314Z,0.96
2023-11-25T07:36:08.214Z,0.89
2023-11-25T07:39:10.346Z,1.00
2023-11-25T07:42:12.493Z,1.19
2023-11-25T07:45:15.172Z,1.44
2023-11-25T07:48:17.573Z,1.72
2023-11-25T07:51:20.187Z,1.76
2023-11-25T07:54:22.564Z,2.27
2023-11-25T07:57:25.753Z,2.25
2023-11-25T08:00:28.184Z,2.26
2023-11-25T08:03:30.557Z,2.44
2023-11-25T08:06:33.124Z,2.82
2023-11-25T08:09:35.624Z,3.25
2023-11-25T08:12:37.786Z,3.22
2023-11-25T08:15:40.346Z,3.01
2023-11-25T08:18:45.701Z,2.91
2023-11-25T08:21:49.857Z,2.41
2023-11-25T08:24:56.452Z,2.24
2023-11-25T08:27:58.870Z,2.09
2023-11-25T08:31:01.316Z,2.05
2023-11-25T08:34:05.701Z,2.01
2023-11-25T08:37:09.291Z,1.92
2023-11-25T08:40:19.159Z,1.90
2023-11-25T08:43:22.033Z,1.86
2023-11-25T08:46:24.265Z,1.86
2023-11-25T08:49:26.966Z,1.84
2023-11-25T08:52:33.521Z,1.84
2023-11-25T08:55:35.722Z,2.01
2023-11-25T08:58:38.078Z,2.19
2023-11-25T09:01:41.118Z,2.38
2023-11-25T09:04:44.140Z,2.67
2023-11-25T09:07:46.480Z,2.90
2023-11-25T09:10:50.783Z,2.98
2023-11-25T09:13:53.517Z,3.10
2023-11-25T09:16:56.309Z,3.13
2023-11-25T09:19:58.850Z,3.29
2023-11-25T09:23:01.315Z,3.47
2023-11-25T09:26:03.925Z,3.60
2023-11-25T09:29:06.912Z,3.65
2023-11-25T09:32:09.625Z,3.40
2023-11-25T09:35:13.721Z,3.34
2023-11-25T09:38:16.074Z,3.36
2023-11-25T09:41:18.935Z,3.33
2023-11-25T09:44:22.250Z,3.40
2023-11-25T09:47:24.757Z,3.42
2023-11-25T09:50:27.287Z,3.54
2023-11-25T09:53:30.603Z,3.62
2023-11-25T09:56:32.906Z,3.79
2023-11-25T09:59:35.646Z,4.06
2023-11-25T10:02:40.787Z,4.72
2023-11-25T10:05:43.056Z,5.30
2023-11-25T10:08:45.977Z,5.77
2023-11-25T10:11:48.868Z,6.41
2023-11-25T10:14:54.184Z,6.85
2023-11-25T10:17:57.141Z,7.07
2023-11-25T10:21:00.777Z,7.16
2023-11-25T10:24:09.822Z,6.75
2023-11-25T10:27:13.374Z,6.47
2023-11-25T10:30:16.440Z,7.14
2023-11-25T10:33:19.309Z,6.81
2023-11-25T10:36:21.904Z,6.64
2023-11-25T10:39:25.142Z,6.72
2023-11-25T10:42:29.295Z,6.18
2023-11-25T10:45:32.638Z,5.81
2023-11-25T10:48:36.698Z,5.68
2023-11-25T10:51:40.316Z,5.75
2023-11-25T10:54:43.209Z,5.63
2023-11-25T10:57:47.241Z,5.40
2023-11-25T11:00:51.077Z,5.43
2023-11-25T11:04:01.333Z,5.44
2023-11-25T11:07:08.387Z,5.23
2023-11-25T11:10:13.038Z,5.22
2023-11-25T11:13:19.830Z,5.24
2023-11-25T11:16:39.636Z,5.40
2023-11-25T11:19:43.329Z,5.22
2023-11-25T11:22:45.887Z,5.06
2023-11-25T11:25:48.004Z,5.13
2023-11-25T11:29:07.614Z,5.10
2023-11-25T11:32:14.389Z,4.96
2023-11-25T11:35:21.345Z,5.06
2023-11-25T11:38:32.334Z,4.85
2023-11-25T11:41:37.467Z,5.03
2023-11-25T11:44:40.830Z,5.08
2023-11-25T11:47:49.204Z,5.13
2023-11-25T11:50:56.015Z,5.25
2023-11-25T11:54:22.980Z,4.92
2023-11-25T11:57:25.416Z,4.85
2023-11-25T12:00:28.511Z,4.57
2023-11-25T12:03:32.217Z,4.41
2023-11-25T12:06:35.632Z,4.51
2023-11-25T12:09:38.579Z,4.46
2023-11-25T12:12:42.734Z,4.31
2023-11-25T12:15:44.890Z,4.22
2023-11-25T12:18:47.389Z,4.10
2023-11-25T12:21:50.344Z,4.09
2023-11-25T12:24:52.847Z,4.00
2023-11-25T12:28:15.470Z,3.96
2023-11-25T12:31:17.855Z,3.78
2023-11-25T12:34:20.831Z,3.84
2023-11-25T12:37:23.170Z,4.12
2023-11-25T12:40:26.390Z,4.33
2023-11-25T12:43:29.379Z,4.53
2023-11-25T12:46:32.358Z,4.71
2023-11-25T12:49:35.757Z,4.82
2023-11-25T12:52:38.151Z,4.83
2023-11-25T12:55:45.909Z,4.92
2023-11-25T12:58:49.085Z,4.68
2023-11-25T13:01:52.302Z,4.63
2023-11-25T13:04:55.809Z,4.15
2023-11-25T13:07:58.942Z,3.84
2023-11-25T13:11:05.256Z,3.70
2023-11-25T13:14:07.615Z,3.63
2023-11-25T13:17:10.278Z,3.62
2023-11-25T13:20:12.917Z,3.59
2023-11-25T13:23:15.791Z,3.56
2023-11-25T13:26:19.097Z,3.48
2023-11-25T13:29:21.248Z,3.44
2023-11-25T13:32:23.924Z,3.40
2023-11-25T13:35:26.149Z,3.50
2023-11-25T13:38:28.683Z,3.46
2023-11-25T13:41:31.131Z,3.45
2023-11-25T13:44:33.529Z,3.48
2023-11-25T13:47:36.036Z,3.52
2023-11-25T13:50:39.180Z,3.47
2023-11-25T13:53:41.690Z,3.44
2023-11-25T13:56:44.267Z,3.37
2023-11-25T13:59:46.791Z,3.36
2023-11-25T14:02:52.625Z,3.37
2023-11-25T14:05:56.762Z,3.42
2023-11-25T14:09:00.330Z,3.48
2023-11-25T14:12:04.234Z,3.57
2023-11-25T14:15:11.224Z,3.54
2023-11-25T14:18:13.492Z,3.46
2023-11-25T14:21:16.021Z,3.41
2023-11-25T14:24:18.478Z,3.34
2023-11-25T14:27:21.212Z,3.19
2023-11-25T14:30:30.005Z,3.14
2023-11-25T14:33:32.320Z,3.06
2023-11-25T14:36:34.707Z,2.98
2023-11-25T14:39:44.313Z,2.91
2023-11-25T14:42:50.428Z,2.86
2023-11-25T14:45:52.604Z,2.87
2023-11-25T14:48:54.811Z,2.98
2023-11-25T14:51:57.375Z,3.01
2023-11-25T14:54:59.506Z,2.96
2023-11-25T14:58:02.076Z,2.85
2023-11-25T15:01:04.247Z,2.68
2023-11-25T15:04:07.364Z,2.61
2023-11-25T15:07:10.263Z,2.44
2023-11-25T15:10:13.214Z,2.36
2023-11-25T15:13:18.820Z,2.13
2023-11-25T15:16:21.000Z,1.95
2023-11-25T15:19:24.675Z,1.84
2023-11-25T15:22:28.621Z,1.74
2023-11-25T15:25:34.064Z,1.66
2023-11-25T15:28:36.362Z,1.53
2023-11-25T15:31:41.136Z,1.45
2023-11-25T15:34:43.442Z,1.41
2023-11-25T15:37:47.864Z,1.31
2023-11-25T15:40:50.178Z,1.26
2023-11-25T15:43:52.413Z,1.23
2023-11-25T15:46:55.745Z,1.14
2023-11-25T15:49:58.094Z,1.09
2023-11-25T15:53:00.720Z,1.08
2023-11-25T15:56:03.828Z,1.07
2023-11-25T15:59:07.762Z,1.10
2023-11-25T16:02:10.873Z,1.13
2023-11-25T16:05:16.916Z,1.11
2023-11-25T16:08:19.629Z,1.14
2023-11-25T16:11:21.886Z,1.18
2023-11-25T16:14:24.545Z,1.20
2023-11-25T16:17:27.678Z,1.22
2023-11-25T16:20:33.135Z,1.19
2023-11-25T16:23:38.932Z,1.11
2023-11-25T16:26:42.771Z,1.03
2023-11-25T16:29:45.715Z,0.98
2023-11-25T16:32:48.972Z,0.89
2023-11-25T16:35:51.972Z,0.83
2023-11-25T16:38:54.772Z,0.76
2023-11-25T16:41:57.096Z,0.72
2023-11-25T16:44:59.667Z,0.60
2023-11-25T16:48:02.464Z,0.55
2023-11-25T16:51:05.617Z,0.50
2023-11-25T16:54:08.182Z,0.48
2023-11-25T16:57:10.777Z,0.45
2023-11-25T17:00:13.579Z,0.39
2023-11-25T17:03:15.876Z,0.34
2023-11-25T17:06:18.113Z,0.23
2023-11-25T17:09:20.925Z,0.21
2023-11-25T17:12:23.480Z,0.13
2023-11-25T17:15:26.171Z,0.00
2023-11-25T17:18:29.313Z,-0.10
2023-11-25T17:21:31.846Z,-0.20
2023-11-25T17:24:36.216Z,-0.30
2023-11-25T17:27:39.031Z,-0.41
2023-11-25T17:30:41.374Z,-0.41
2023-11-25T17:33:43.584Z,-0.42
2023-11-25T17:36:47.925Z,-0.34
2023-11-25T17:39:50.900Z,-0.31
2023-11-25T17:42:53.508Z,-0.29
2023-11-25T17:45:56.915Z,-0.30
2023-11-25T17:48:59.874Z,-0.30
2023-11-25T17:52:02.799Z,-0.40
2023-11-25T17:55:07.357Z,-0.54
2023-11-25T17:58:09.877Z,-0.64
2023-11-25T18:01:13.429Z,-0.73
2023-11-25T18:04:15.815Z,-0.84
2023-11-25T18:07:18.419Z,-0.90
2023-11-25T18:10:21.065Z,-0.96
2023-11-25T18:13:24.268Z,-1.02
2023-11-25T18:16:27.205Z,-1.08
2023-11-25T18:19:29.578Z,-1.13
2023-11-25T18:22:31.916Z,-1.20
2023-11-25T18:25:34.787Z,-1.26
2023-11-25T18:28:39.295Z,-1.30
2023-11-25T18:31:42.206Z,-1.36
2023-11-25T18:34:44.928Z,-1.44
2023-11-25T18:37:48.410Z,-1.47
2023-11-25T18:40:51.979Z,-1.53
2023-11-25T18:43:54.500Z,-1.51
2023-11-25T18:46:57.781Z,-1.46
2023-11-25T18:50:00.939Z,-1.43
2023-11-25T18:53:03.429Z,-1.46
2023-11-25T18:56:06.973Z,-1.47
2023-11-25T18:59:10.084Z,-1.41
2023-11-25T19:02:13.387Z,-1.41
2023-11-25T19:05:16.972Z,-1.41
2023-11-25T19:08:19.674Z,-1.44
2023-11-25T19:11:22.009Z,-1.56
2023-11-25T19:14:24.605Z,-1.61
2023-11-25T19:17:27.785Z,-1.71
2023-11-25T19:20:30.921Z,-1.75
2023-11-25T19:23:33.503Z,-1.75
2023-11-25T19:26:41.610Z,-1.71
2023-11-25T19:29:44.811Z,-1.80
2023-11-25T19:32:47.906Z,-1.84
2023-11-25T19:35:50.940Z,-1.85
2023-11-25T19:38:56.321Z,-1.62
2023-11-25T19:42:08.025Z,-1.54
2023-11-25T19:45:13.188Z,-1.48
2023-11-25T19:48:16.672Z,-1.51
2023-11-25T19:51:19.486Z,-1.59
2023-11-25T19:54:24.196Z,-1.69
2023-11-25T19:57:27.135Z,-1.75
2023-11-25T20:00:30.572Z,-1.82
2023-11-25T20:03:34.356Z,-1.85
2023-11-25T20:06:37.812Z,-1.84
2023-11-25T20:09:41.769Z,-1.83
2023-11-25T20:12:44.773Z,-1.79
2023-11-25T20:15:47.497Z,-1.81
2023-11-25T20:18:50.595Z,-1.74
2023-11-25T20:21:55.338Z,-1.73
2023-11-25T20:25:01.140Z,-1.68
2023-11-25T20:28:05.041Z,-1.61
2023-11-25T20:31:08.399Z,-1.46
2023-11-25T20:34:11.556Z,-1.34
2023-11-25T20:37:14.812Z,-1.26
2023-11-25T20:40:17.689Z,-1.24
2023-11-25T20:43:20.220Z,-1.19
2023-11-25T20:46:22.876Z,-1.09
2023-11-25T20:49:26.513Z,-1.02
2023-11-25T20:52:32.174Z,-0.95
2023-11-25T20:55:34.948Z,-0.88
2023-11-25T20:58:37.175Z,-0.82
2023-11-25T21:01:39.658Z,-0.78
2023-11-25T21:04:43.105Z,-0.71
2023-11-25T21:07:45.749Z,-0.65
2023-11-25T21:10:48.247Z,-0.59
2023-11-25T21:13:54.198Z,-0.54
2023-11-25T21:16:56.476Z,-0.52
2023-11-25T21:20:01.789Z,-0.52
2023-11-25T21:23:05.332Z,-0.53
2023-11-25T21:26:09.313Z,-0.55
2023-11-25T21:29:13.120Z,-0.55
2023-11-25T21:32:15.715Z,-0.54
2023-11-25T21:35:18.711Z,-0.53
2023-11-25T21:38:21.323Z,-0.56
2023-11-25T21:41:23.564Z,-0.64
2023-11-25T21:44:26.086Z,-0.84
2023-11-25T21:47:28.566Z,-1.05
2023-11-25T21:50:31.171Z,-1.17
2023-11-25T21:53:33.617Z,-1.25
2023-11-25T21:56:36.196Z,-1.41
2023-11-25T21:59:38.661Z,-1.45
2023-11-25T22:02:41.056Z,-1.42
2023-11-25T22:05:43.364Z,-1.38
2023-11-25T22:08:45.867Z,-1.27
2023-11-25T22:11:49.313Z,-1.26
2023-11-25T22:14:52.361Z,-1.25
2023-11-25T22:17:56.099Z,-1.25
2023-11-25T22:20:58.851Z,-1.30
2023-11-25T22:24:01.357Z,-1.31
2023-11-25T22:27:13.384Z,-1.30
2023-11-25T22:30:16.025Z,-1.29
2023-11-25T22:33:18.288Z,-1.25
2023-11-25T22:36:24.833Z,-1.25
2023-11-25T22:39:27.429Z,-1.14
2023-11-25T22:42:29.614Z,-1.13
2023-11-25T22:45:33.235Z,-1.15
2023-11-25T22:48:39.939Z,-1.22
2023-11-25T22:51:44.847Z,-1.31
2023-11-25T22:54:47.095Z,-1.29
2023-11-25T22:57:50.535Z,-1.25
2023-11-25T23:00:53.873Z,-1.22
2023-11-25T23:03:58.978Z,-1.23
2023-11-25T23:07:02.031Z,-1.25
2023-11-25T23:10:04.582Z,-1.24
2023-11-25T23:13:07.211Z,-1.29
2023-11-25T23:16:11.120Z,-1.31
2023-11-25T23:19:14.777Z,-1.31
2023-11-25T23:22:16.936Z,-1.33
2023-11-25T23:25:19.458Z,-1.34
2023-11-25T23:28:22.143Z,-1.32
2023-11-25T23:31:25.417Z,-1.27
2023-11-25T23:34:27.956Z,-1.24
2023-11-25T23:37:32.268Z,-1.23
2023-11-25T23:40:35.881Z,-1.39
2023-11-25T23:43:38.726Z,-1.18
2023-11-25T23:46:41.667Z,-1.17
2023-11-25T23:49:45.379Z,-1.17
2023-11-25T23:52:49.188Z,-1.18
2023-11-25T23:55:51.631Z,-1.12
2023-11-25T23:58:54.299Z,-1.34
